Tiempo atmosférico en la estación meteorológica de Tortosa, Tarragona (44 m.)



Fecha
DESCASC
Temp. máxima en grados centígrados (hora)
DESCASC
Temp. mínima en grados centígrados (hora)
DESCASC
Temp. media en grados centígrados
DESCASC
Racha de viento máxima en m/sg (hora)
DESCASC
Velocidad máxima media en intervalos de 10 minutos(hora)
DESCASC
Precipitaciones diarias en mm
DESCASC
Precipitaciones de 00:00 a 06:00 en mm
DESCASC
Precipitaciones de 06:00 a 12:00 en mm
DESCASC
Precipitaciones de 12:00 a 18:00 en mm
DESCASC
Precipitaciones de 18:00 a 24:00 en mm
DESCASC
11-09-2019 24 (18:10) 13.9 (00:00) 18.9 10 (18:20) 4.72 (18:20) 13.2 2.6 10 0.6 0
27-08-2019 26.9 (14:20) 19.5 (00:00) 23.2 7.22 (07:30) 3.89 (01:50) 18.2 0.6 1 15.8 0.8
21-09-2019 30.3 (14:40) 18.2 (00:00) 24.3 7.78 (15:50) 4.17 (16:10) 5.6 0.4 0.2 3.8 1.2
28-08-2019 33.2 (15:10) 17.9 (00:00) 25.6 7.22 (15:20) 4.44 (15:30) 0.2 0.2 0 0 0
14-09-2019 28.2 (17:40) 16.1 (00:00) 22.2 10.56 (12:30) 4.72 (13:00) 0.6 0.2 0 0.4 0
02-09-2019 31.6 (17:00) 21.7 (00:00) 26.7 12.78 (09:50) 6.67 (10:00) 0.2 0.2 0 0 0
09-09-2019 31.5 (14:30) 19.1 (05:00) 25.3 8.61 (15:30) 4.72 (17:10) 0 0 0 0 0
07-09-2019 30.6 (14:30) 17.2 (00:00) 23.9 9.72 (02:20) 4.72 (16:40) 0 0 0 0 0
10-09-2019 25.7 (15:10) 15.4 (21:10) 20.6 15.83 (09:40) 7.78 (02:50) 1.2 0 0 0 1.2
12-09-2019 31.7 (16:30) 18.5 (00:00) 25.1 10 (09:50) 4.72 (11:10) 0 0 0 0 0
13-09-2019 26.7 (16:00) 17.7 (00:00) 22.2 8.33 (23:30) 3.89 (23:20) 14.8 0 0.8 0.6 13.4
15-09-2019 30 (14:30) 17.9 (00:00) 23.9 10.56 (14:50) 5 (16:50) 0 0 0 0 0
16-09-2019 31.4 (15:00) 18.5 (00:00) 24.9 7.78 (17:00) 4.17 (17:00) 0 0 0 0 0
17-09-2019 33.9 (15:20) 16.5 (00:00) 25.2 7.22 (15:50) 4.17 (15:50) 0 0 0 0 0
18-09-2019 33.8 (14:20) 17.7 (00:00) 25.8 7.22 (20:10) 5 (20:20) 0 0 0 0 0
19-09-2019 31.4 (15:00) 18.4 (00:00) 24.9 8.89 (15:00) 5 (15:30) 0 0 0 0 0
20-09-2019 27.4 (13:20) 20.9 (00:00) 24.1 8.89 (16:30) 5 (16:30) 0 0 0 0 0
08-09-2019 32.4 (14:50) 18.1 (00:00) 25.3 8.61 (18:10) 5 (18:10) 0 0 0 0 0
23-08-2019 34.1 (13:20) 19.7 (00:00) 26.9 10 (14:30) 5 (15:50) 0 0 0 0 0
06-09-2019 30.6 (16:10) 17.3 (00:00) 23.9 15.83 (05:20) 8.61 (00:30) 0 0 0 0 0
05-09-2019 30.5 (16:40) 20.4 (00:00) 25.4 17.5 (08:30) 8.89 (08:30) 0 0 0 0 0
04-09-2019 33.7 (14:40) 17.9 (00:00) 25.8 8.61 (23:59) 5 (19:10) 0 0 0 0 0
03-09-2019 33.1 (15:10) 18.8 (00:00) 25.9 -- (--) -- (--) 0 0 0 0 0
01-09-2019 33.7 (14:30) 22.5 (00:00) 28.1 8.61 (23:40) 4.44 (18:40) 0.4 0 0 0 0.4
31-08-2019 36.3 (17:20) 19.5 (00:00) 27.9 7.22 (15:30) 4.17 (15:30) 0 0 0 0 0
30-08-2019 34.9 (15:00) 19.9 (00:00) 27.4 7.78 (17:40) 4.72 (17:10) 0 0 0 0 0
29-08-2019 33.2 (15:00) 18.9 (00:00) 26.1 8.33 (15:50) 4.72 (17:30) 0 0 0 0 0
26-08-2019 32.5 (13:10) 19.3 (00:00) 25.9 8.33 (18:20) 4.17 (17:50) 0 0 0 0 0
25-08-2019 33.9 (14:30) 19.6 (00:00) 26.8 9.17 (16:50) 5 (16:40) 0 0 0 0 0
24-08-2019 34.3 (15:10) 18.9 (00:00) 26.6 8.89 (17:40) 5 (15:50) 0 0 0 0 0

Gráficas

Temp. máximas Temp. mínimas Temp. medias Precipitaciones Rachas de viento máximas Velocidades máximas media en intervalos de 10 minutos

Datos horarios

Fecha y hora oficial Temperatura (ºC) Velocidad del viento (km/h) Dirección del viento Racha (km/h) Dirección de racha Precipitación (mm) Presión (hPa) Tendencia (hPa) Humedad (%)
2019-09-21 23:00:00 21 7 Sudeste 20 Sudeste 0 1008.5 0.9 93
2019-09-21 22:00:00 21.2 9 Sur 17 Este 0 1008.4 1.2 93
2019-09-21 21:00:00 21.6 12 Sudeste 23 Sudeste 1.2 1008 1.1 93
2019-09-21 20:00:00 22.2 12 Sudeste 21 Sudeste 0 1007.6 1 92
2019-09-21 19:00:00 22.8 12 Sudeste 23 Sudeste 0 1007.2 0.7 91
2019-09-21 18:00:00 22.2 9 Sudoeste 16 Sudoeste 0.4 1006.9 0 88
2019-09-21 17:00:00 22.6 6 Noroeste 23 Oeste 3.4 1006.6 -1.2 83
2019-09-21 16:00:00 27.7 5 Noroeste 28 Oeste 0 1006.5 -1.8 55
2019-09-21 15:00:00 30 10 Sudeste 20 Sudeste 0 1006.9 -2.1 53
2019-09-21 14:00:00 29.3 12 Sur 19 Sur 0 1007.8 -1 57
2019-09-21 13:00:00 27.5 6 Sur 13 Sudeste 0 1008.3 -1.2 59
2019-09-21 12:00:00 25 4 Nordeste 13 Norte 0 1009 -0.7 65
2019-09-21 11:00:00 19.9 9 Noroeste 18 Noroeste 0 1008.8 -0.3 88
2019-09-21 10:00:00 19 5 Norte 12 Norte 0 1009.5 -0.1 90
2019-09-21 09:00:00 18.2 3 Nordeste 19 Norte 0 1009.7 -0.3 90
2019-09-21 08:00:00 18.2 12 Noroeste 20 Noroeste 0 1009.1 -0.7 90
2019-09-21 07:00:00 19.7 9 Nordeste 23 Nordeste 0.2 1009.6 -1.1 86
2019-09-21 06:00:00 20.7 2 Sudeste 7 Noroeste 0 1010 -1.3 93
2019-09-21 05:00:00 21 6 Noroeste 8 Oeste 0.4 1009.8 -1.5 90
2019-09-21 04:00:00 21.9 2 Noroeste 10 Norte 0 1010.7 -0.7 80
2019-09-21 03:00:00 22 4 Sur 14 Este 0 1011.3 -0.8 80
2019-09-21 02:00:00 22 7 Este 14 Este 0 1011.3 -1.2 79
2019-09-21 01:00:00 21.7 5 Este 13 Sudeste 0 1011.4 -1.1 81
2019-09-21 00:00:00 21.6 6 Sudeste 13 Sudoeste 0 1012.1 -0.4 84
2019-09-20 23:00:00 21.7 6 Sudoeste 12 Sudoeste 0 1012.5 0.1 82
2019-09-20 22:00:00 21.7 4 Sudoeste 11 Sudeste 0 1012.5 0.1 80
2019-09-20 21:00:00 22.2 6 Sur 17 Sur 0 1012.5 0.2 77
2019-09-20 20:00:00 23.2 13 Sudeste 22 Sudeste 0 1012.4 -0.1 73
2019-09-20 19:00:00 24.1 10 Sudeste 27 Sudeste 0 1012.4 -0.5 70
2019-09-20 18:00:00 24.5 15 Este 32 Sudeste 0 1012.3 -0.9 66
2019-09-20 17:00:00 25.4 12 Sudeste 32 Este 0 1012.5 -0.8 65
2019-09-20 16:00:00 25.1 16 Sudeste 28 Este 0 1012.9 -0.8 66
2019-09-20 15:00:00 25.5 13 Este 30 Este 0 1013.2 -1.1 65
2019-09-20 14:00:00 26.4 14 Sudeste 30 Este 0 1013.3 -1.2 65
2019-09-20 13:00:00 27 14 Este 30 Sudeste 0 1013.7 -0.7 61
2019-09-20 12:00:00 26.1 14 Este 30 Este 0 1014.3 0.4 64
2019-09-20 11:00:00 25.6 12 Este 28 Sudeste 0 1014.5 1.2 68
2019-09-20 10:00:00 23.8 10 Este 21 Este 0 1014.4 1.4 74
2019-09-20 09:00:00 21.6 5 Sudoeste 9 Sudoeste 0 1013.9 0.8 86
2019-09-20 08:00:00 21.1 5 Sudoeste 9 Sudoeste 0 1013.3 0.2 88
2019-09-20 07:00:00 21.1 6 Sudoeste 11 Sur 0 1013 -0.5 88
2019-09-20 06:00:00 20.9 8 Sudoeste 11 Sudoeste 0 1013.1 -0.6 90
2019-09-20 05:00:00 21.1 5 Sur 11 Sudoeste 0 1013.1 -0.7 87
2019-09-20 04:00:00 21.4 7 Sudoeste 11 Sudoeste 0 1013.5 -0.4 86
2019-09-20 03:00:00 21.1 5 Sudoeste 9 Sudoeste 0 1013.7 -0.4 86
2019-09-20 02:00:00 20.9 6 Sudoeste 10 Sudoeste 0 1013.8 -0.3 87
2019-09-20 01:00:00 21.3 3 Sur 8 Sur 0 1013.9 0.4 85
2019-09-20 00:00:00 21.5 5 Sudoeste 9 Sudoeste 0 1014.1 1.1 85
2019-09-19 23:00:00 21.7 6 Sudoeste 10 Sudoeste 0 1014.1 1.9 85
2019-09-19 22:00:00 21.8 3 Sudoeste 7 Sur 0 1013.5 1.8 84
2019-09-19 21:00:00 22.4 5 Sur 11 Sur 0 1013 1 81
2019-09-19 20:00:00 23.3 6 Sur 15 Sudeste 0 1012.2 -0.2 77
2019-09-19 19:00:00 24.3 8 Sudeste 17 Sudeste 0 1011.7 -0.4 72
2019-09-19 18:00:00 24.6 8 Sur 19 Sur 0 1012 0.1 69
2019-09-19 17:00:00 24.5 13 Sur 24 Sudeste 0 1012.4 0.1 68
2019-09-19 16:00:00 26.5 15 Sur 31 Sur 0 1012.1 -0.4 61
2019-09-19 15:00:00 31 15 Sudeste 32 Sudeste 0 1011.9 -1.1 48
2019-09-19 14:00:00 31 12 Sudeste 24 Sur 0 1012.3 -0.8 44
2019-09-19 13:00:00 30.3 9 Sur 18 Sur 0 1012.5 -0.4 48
2019-09-19 12:00:00 28.3 5 Sur 12 Sur 0 1013 0.2 51
2019-09-19 11:00:00 26.5 3 Noroeste 8 Norte 0 1013.1 0.5 54
2019-09-19 10:00:00 22.9 6 Norte 13 Norte 0 1012.9 0.7 69
2019-09-19 09:00:00 20.1 7 Norte 12 Norte 0 1012.8 1.1 79
2019-09-19 08:00:00 18.4 5 Norte 8 Norte 0 1012.6 1.3 84
2019-09-19 07:00:00 19 4 Nordeste 10 Oeste 0 1012.2 0.8 83
2019-09-19 06:00:00 19.3 12 Oeste 17 Oeste 0 1011.7 0 81
2019-09-19 05:00:00 19.8 7 Norte 15 Norte 0 1011.3 -0.5 80
2019-09-19 04:00:00 20.1 8 Norte 14 Norte 0 1011.4 -0.3 82
2019-09-19 03:00:00 20.7 7 Noroeste 11 Norte 0 1011.7 -0.2 85
2019-09-19 02:00:00 21.6 8 Noroeste 10 Oeste 0 1011.8 0 82
2019-09-19 01:00:00 22.1 4 Norte 15 Sudoeste 0 1011.7 0.5 80
2019-09-19 00:00:00 22.7 13 Sudoeste 18 Sudoeste 0 1011.9 1.4 75
2019-09-18 23:00:00 22.6 11 Oeste 17 Sudoeste 0 1011.8 1.8 78
2019-09-18 22:00:00 23.6 4 Sur 9 Sudoeste 0 1011.2 1.4 73
2019-09-18 21:00:00 24.2 2 Sudeste 26 Sudoeste 0 1010.5 0.4 70
2019-09-18 20:00:00 25.9 5 Oeste 17 Sur 0 1010 0.2 64
2019-09-18 19:00:00 27.3 6 Sudoeste 18 Sur 0 1009.8 -0.1 61
2019-09-18 18:00:00 27.7 6 Sur 13 Este 0 1010.1 0.2 52
2019-09-18 17:00:00 28.5 8 Sudeste 21 Sudeste 0 1009.8 -0.3 50
2019-09-18 16:00:00 29.8 13 Sudeste 24 Sudeste 0 1009.9 -0.5 43
2019-09-18 15:00:00 33.2 10 Sudeste 19 Sudeste 0 1009.9 -0.6 34
2019-09-18 14:00:00 33.5 6 Noroeste 19 Noroeste 0 1010.1 -0.6 30
2019-09-18 13:00:00 32.3 8 Norte 24 Norte 0 1010.4 -0.1 33
2019-09-18 12:00:00 30.2 11 Norte 23 Nordeste 0 1010.5 0.8 38
2019-09-18 11:00:00 27.5 11 Norte 24 Norte 0 1010.7 1.3 43
2019-09-18 10:00:00 23.7 3 Norte 11 Noroeste 0 1010.5 1.5 63
2019-09-18 09:00:00 19.6 0 Calma 10 Norte 0 1009.7 0.7 76
2019-09-18 08:00:00 18.2 7 Norte 15 Noroeste 0 1009.4 -0.1 77
2019-09-18 07:00:00 18.3 4 Nordeste 15 Norte 0 1009 -0.8 77
2019-09-18 06:00:00 18.5 8 Noroeste 16 Norte 0 1009 -0.6 76
2019-09-18 05:00:00 18.5 5 Norte 10 Norte 0 1009.5 -0.2 83
2019-09-18 04:00:00 19.5 4 Norte 16 Noroeste 0 1009.8 0.1 82
2019-09-18 03:00:00 19.5 6 Nordeste 11 Este 0 1009.6 -1.4 87
2019-09-18 02:00:00 20.1 5 Sur 19 Norte 0 1009.7 -1.7 80
2019-09-18 01:00:00 20.4 10 Noroeste 18 Norte 0 1009.7 -0.9 78
2019-09-18 00:00:00 20.7 7 Noroeste 13 Norte 0 1011 1.2 82
2019-09-17 23:00:00 21.8 2 Sudeste 8 Sudoeste 0 1011.4 2.4 82
2019-09-17 22:00:00 22.3 6 Sudoeste 12 Sudoeste 0 1010.6 1.5 78
2019-09-17 21:00:00 23.4 7 Sur 16 Sur 0 1009.8 0.3 70
2019-09-15 18:00:00 26.8 10 Sudeste 21 Este 0 1015.3 -0.8 70
2019-09-15 17:00:00 27.3 13 Sudeste 28 Este 0 1015.6 -0.7 67
2019-09-15 16:00:00 27.8 14 Este 26 Sudeste 0 1015.7 -1.2 62
2019-09-15 15:00:00 28.9 15 Este 38 Este 0 1016.1 -1.5 52
2019-09-15 14:00:00 29.7 11 Este 27 Este 0 1016.3 -1.9 45
2019-09-15 13:00:00 29.1 8 Sudeste 21 Este 0 1016.9 -0.8 46
2019-09-15 12:00:00 28.2 9 Nordeste 23 Este 0 1017.6 0.3 49
2019-09-15 11:00:00 26.7 15 Este 26 Este 0 1018.2 0.9 44
2019-09-15 10:00:00 23.6 5 Sur 16 Este 0 1017.7 0.8 67
2019-09-15 09:00:00 20.2 4 Sudeste 18 Oeste 0 1017.3 0.1 81
2019-09-15 08:00:00 18 6 Noroeste 11 Noroeste 0 1017.3 0.1 90
2019-09-15 07:00:00 18.5 9 Norte 14 Noroeste 0 1016.9 -1.2 89
2019-09-15 06:00:00 18.9 4 Noroeste 9 Norte 0 1017.2 -1.6 88
2019-09-15 05:00:00 20 5 Noroeste 11 Noroeste 0 1017.2 -1.4 84
2019-09-15 04:00:00 20.7 5 Sudoeste 16 Sudoeste 0 1018.1 -0.5 81
2019-09-15 03:00:00 20.2 9 Sudoeste 12 Sur 0 1018.8 -0.4 82
2019-09-15 02:00:00 21 4 Sur 10 Noroeste 0 1018.6 0.1 80
2019-09-15 01:00:00 21.4 5 Noroeste 17 Sudoeste 0 1018.6 0.2 78
2019-09-15 00:00:00 21.4 11 Sur 17 Sur 0 1019.2 1.1 75
2019-09-14 23:00:00 21.6 7 Sudoeste 10 Sudoeste 0 1018.5 0.4 66
2019-09-14 22:00:00 22.4 5 Oeste 12 Sudoeste 0 1018.4 0.4 66
2019-09-14 21:00:00 23.6 6 Sur 10 Sur 0 1018.1 0.3 60
2019-09-14 20:00:00 25 3 Sudeste 17 Sudeste 0 1018.1 -0.3 55
2019-09-14 19:00:00 26.4 8 Este 23 Nordeste 0 1018 -1.1 43
2019-09-14 18:00:00 27.9 9 Nordeste 22 Este 0 1017.8 -1.7 38
2019-09-14 17:00:00 27.6 9 Este 23 Este 0 1018.4 -1.6 41
2019-09-14 16:00:00 26.6 12 Este 24 Este 0 1019.1 -0.2 41
2019-09-14 15:00:00 27.7 14 Este 31 Sudeste 0 1019.5 -2 40
2019-09-14 14:00:00 24.9 4 Sur 25 Noroeste 0 1020 -1 60
2019-09-14 13:00:00 20.9 17 Noroeste 38 Norte 0.4 1019.3 -1.9 80
2019-09-14 12:00:00 21.9 6 Norte 20 Norte 0 1021.5 1 72
2019-09-14 11:00:00 21.4 10 Norte 20 Noroeste 0 1021 0.6 74
2019-09-14 10:00:00 19.4 6 Norte 19 Norte 0 1021.2 1.1 80
2019-09-14 09:00:00 18.1 11 Norte 25 Noroeste 0 1020.5 0.9 85
2019-09-14 08:00:00 16.8 11 Norte 21 Norte 0 1020.4 0.4 89
2019-09-14 07:00:00 16.5 8 Norte 21 Norte 0 1020.1 -0.1 93
2019-09-14 06:00:00 16.7 12 Norte 24 Norte 0 1019.6 -1.4 91
2019-09-14 05:00:00 16.1 10 Norte 18 Norte 0.2 1020 -1.3 94
2019-09-14 04:00:00 16.3 10 Norte 23 Norte 0 1020.2 -1.8 94
2019-09-14 03:00:00 16.7 11 Norte 22 Norte 0 1021 -0.9 96
2019-09-14 02:00:00 17.2 10 Norte 23 Norte 0 1021.3 -3.1 96
2019-09-14 01:00:00 17.5 8 Norte 17 Norte 0 1022 -2.5 96
2019-09-14 00:00:00 17.9 9 Noroeste 30 Norte 1.2 1021.9 -1.3 95
2019-09-13 23:00:00 18.3 9 Noroeste 15 Oeste 4 1024.4 3.1 94
2019-09-13 22:00:00 18.8 3 Sudeste 22 Sudoeste 8 1024.5 3.5 90
2019-09-13 21:00:00 21.4 13 Sur 20 Sur 0.2 1023.2 2.2 79
2019-09-13 20:00:00 22.9 7 Este 13 Sudeste 0 1021.3 0 63
2019-09-13 19:00:00 24.7 9 Sur 16 Sur 0 1021 0.4 60
2019-09-13 18:00:00 25.6 9 Sudeste 18 Este 0 1021 -1.3 53
2019-09-13 17:00:00 25.5 7 Este 25 Sudeste 0 1021.3 -1.7 49
2019-09-13 16:00:00 26.7 4 Sudeste 15 Noroeste 0 1020.6 -2.8 52
2019-09-13 15:00:00 25.4 4 Oeste 12 Sudoeste 0 1022.3 -1.4 55
2019-09-13 14:00:00 24 5 Sudoeste 17 Norte 0 1023 -1.5 60
2019-09-13 13:00:00 21.9 3 Oeste 15 Norte 0.6 1023.4 1.3 78
2019-09-13 12:00:00 21.2 4 Oeste 22 Sudeste 0.8 1023.7 3.3 81
2019-09-13 11:00:00 22.2 9 Sudoeste 13 Sur 0 1024.5 4.3 66
2019-09-13 10:00:00 21.3 4 Este 16 Noroeste 0 1022.1 1.1 64
2019-09-13 09:00:00 20.2 6 Noroeste 23 Noroeste 0 1020.4 -1.7 68
2019-09-13 08:00:00 21.5 10 Noroeste 23 Norte 0 1020.2 -1.6 47
2019-09-13 07:00:00 20 13 Noroeste 22 Norte 0 1021 -1.1 57
2019-09-13 06:00:00 18.1 10 Noroeste 16 Norte 0 1022.1 -0.2 78
2019-09-13 05:00:00 18.3 6 Norte 18 Noroeste 0 1021.8 -0.8 82
2019-09-13 04:00:00 18.2 4 Nordeste 19 Noroeste 0 1022.1 -1.6 83
2019-09-13 03:00:00 18.3 8 Norte 14 Norte 0 1022.3 -1.5 84
2019-09-13 02:00:00 18.8 8 Norte 15 Norte 0 1022.6 -1 80
2019-09-13 01:00:00 19.4 5 Norte 10 Norte 0 1023.7 0.7 81
2019-09-13 00:00:00 20 0 Calma 7 Oeste 0 1023.8 1.3 76
2019-09-12 23:00:00 20.8 4 Sur 12 Sur 0 1023.6 1 74
2019-09-12 22:00:00 21.8 8 Sudoeste 14 Sudoeste 0 1023 0.8 71
2019-09-12 21:00:00 22.6 8 Sudoeste 13 Sudeste 0 1022.5 0.7 66
2019-09-12 20:00:00 24.5 8 Sudeste 22 Sur 0 1022.6 1.5 59
2019-09-12 19:00:00 27 10 Sur 26 Sudeste 0 1022.2 1 47
2019-09-12 18:00:00 28.8 16 Sudeste 30 Sudeste 0 1021.8 0.2 39
2019-09-12 17:00:00 30.4 15 Este 25 Este 0 1021.1 -1.4 27
2019-09-12 16:00:00 31.2 4 Este 19 Noroeste 0 1021.2 -1.5 29
2019-09-12 15:00:00 30.8 6 Norte 21 Noroeste 0 1021.6 -1.8 33
2019-09-12 14:00:00 29.8 10 Norte 28 Norte 0 1022.5 -0.8 35
2019-09-12 13:00:00 28.7 13 Norte 30 Noroeste 0 1022.7 -0.5 39
2019-09-12 12:00:00 26.7 12 Norte 36 Norte 0 1023.4 0.8 44
2019-09-12 11:00:00 24.3 12 Norte 32 Norte 0 1023.3 2 49
2019-09-12 10:00:00 21.1 13 Norte 36 Norte 0 1023.2 2.3 57
2019-09-12 09:00:00 19.6 10 Norte 28 Norte 0 1022.6 1.9 61
2019-09-12 08:00:00 19 13 Norte 30 Norte 0 1021.3 0.5 60
2019-09-12 07:00:00 19.1 14 Norte 28 Norte 0 1020.9 0.5 61
2019-09-12 06:00:00 19.2 12 Norte 24 Norte 0 1020.7 0.3 63
2019-09-12 05:00:00 19.4 12 Norte 27 Norte 0 1020.8 0.6 66
2019-09-12 04:00:00 19.3 10 Norte 25 Norte 0 1020.4 1.1 67
2019-09-12 03:00:00 19.4 10 Norte 22 Norte 0 1020.4 1 72
2019-09-12 02:00:00 18.8 9 Norte 19 Norte 0 1020.2 0.6 83
2019-09-12 01:00:00 18.8 12 Norte 19 Norte 0 1019.3 -0.1 83
2019-09-12 00:00:00 18.9 8 Norte 16 Norte 0 1019.4 0.3 83
2019-09-11 23:00:00 20 4 Nordeste 13 Oeste 0 1019.6 1.2 78
2019-09-11 22:00:00 21.1 10 Oeste 15 Oeste 0 1019.4 1.7 72
2019-09-11 21:00:00 21.9 3 Oeste 16 Este 0 1019.1 1.9 67
2019-09-11 20:00:00 22.7 8 Este 30 Este 0 1018.4 1.7 64
2019-09-11 19:00:00 23.4 13 Este 36 Este 0 1017.7 1.4 64
2019-09-11 18:00:00 23.7 7 Este 23 Este 0 1017.2 0.9 63
2019-09-11 17:00:00 22.7 4 Norte 27 Norte 0 1016.7 0.3 68
2019-09-11 16:00:00 23.2 8 Norte 29 Noroeste 0 1016.3 0 66
2019-09-11 15:00:00 21.2 13 Norte 30 Norte 0.2 1016.3 0.3 78
2019-09-11 14:00:00 19.6 10 Norte 26 Norte 0 1016.4 1.3 84
2019-09-11 13:00:00 16.3 13 Norte 28 Norte 0.4 1016.3 2.6 95
2019-09-11 12:00:00 15.8 9 Norte 28 Noroeste 1.8 1016 3.2 96
2019-09-11 11:00:00 15.5 13 Norte 27 Norte 0.4 1015.1 3.6 93
2019-09-11 10:00:00 14.7 13 Norte 28 Norte 0.2 1013.7 3.7 96
2019-09-11 09:00:00 13.9 12 Norte 27 Norte 1.6 1012.8 3.8 96
2019-09-11 08:00:00 13.9 13 Norte 28 Norte 5 1011.5 2.8 95
2019-09-11 07:00:00 14.4 14 Norte 31 Norte 1 1010 0.8 91
2019-09-11 06:00:00 15.7 12 Norte 32 Norte 0.4 1009 -0.3 79
2019-09-11 05:00:00 15.9 13 Norte 28 Norte 0 1008.7 -0.8 77
2019-09-11 04:00:00 15.4 8 Nordeste 27 Noroeste 0.2 1009.2 -0.4 81
2019-09-11 03:00:00 14.7 8 Norte 23 Noroeste 0 1009.3 0.3 87
2019-09-11 02:00:00 14.8 8 Norte 24 Noroeste 1.2 1009.5 1.1 92
2019-09-11 01:00:00 15.6 8 Norte 21 Norte 0.8 1009.6 1.4 87
2019-09-11 00:00:00 17.2 10 Norte 20 Norte 0.2 1009 1.4 72
2019-09-10 23:00:00 17.1 9 Noroeste 21 Noroeste 0 1008.4 1 72
2019-09-10 22:00:00 16.1 8 Norte 26 Noroeste 0 1008.2 1.9 77
2019-09-10 21:00:00 15.5 7 Norte 24 Nordeste 1 1007.6 2.3 85
2019-09-10 20:00:00 18.5 8 Norte 31 Noroeste 0 1007.4 2.7 61
2019-09-10 19:00:00 19.9 19 Noroeste 37 Noroeste 0 1006.3 1.4 44
2019-09-10 18:00:00 23.7 15 Noroeste 44 Noroeste 0 1005.3 0 34
2019-09-10 17:00:00 24.9 17 Noroeste 46 Noroeste 0 1004.7 -0.6 29
2019-09-10 16:00:00 24.2 24 Noroeste 50 Noroeste 0 1004.9 -0.9 30
2019-09-10 15:00:00 25.6 21 Noroeste 53 Norte 0 1005.3 -0.7 28
2019-09-10 14:00:00 24.4 18 Noroeste 51 Norte 0 1005.3 -0.5 30
2019-09-10 13:00:00 22.8 21 Norte 48 Norte 0 1005.8 0.3 33
2019-09-10 12:00:00 20.2 13 Noroeste 53 Noroeste 0 1006 0.8 39
2019-09-10 11:00:00 19.1 19 Noroeste 46 Noroeste 0 1005.8 0.9 42
2019-09-10 10:00:00 18.5 23 Noroeste 57 Oeste 0 1005.5 1.3 46
2019-09-10 09:00:00 19.1 22 Noroeste 55 Oeste 0 1005.2 1.5 44
2019-09-10 08:00:00 19.7 16 Noroeste 51 Norte 0 1004.9 1.7 44
2019-09-10 07:00:00 20.2 16 Norte 40 Norte 0 1004.2 1 48
2019-09-10 06:00:00 20.7 14 Norte 39 Noroeste 0 1003.7 0.6 46
2019-09-10 05:00:00 21.6 22 Noroeste 52 Noroeste 0 1003.2 -1.1 41
2019-09-10 04:00:00 22.5 24 Noroeste 50 Noroeste 0 1003.2 -1.8 38
2019-09-10 03:00:00 23.8 21 Noroeste 47 Oeste 0 1003.1 -2.4 40
2019-09-10 02:00:00 22.1 7 Norte 20 Norte 0 1004.3 -1.8 79
2019-09-10 01:00:00 22.6 6 Noroeste 15 Oeste 0 1005 -1.6 80
2019-09-10 00:00:00 22.6 6 Sudeste 10 Sudeste 0 1005.5 -1.3 80
2019-09-09 23:00:00 23.1 8 Sudeste 12 Sudeste 0 1006.1 -1 77
2019-09-09 22:00:00 23.6 8 Sudeste 13 Sudeste 0 1006.6 -0.5 76
2019-09-09 21:00:00 24.3 7 Sudeste 21 Sudeste 0 1006.8 -0.4 72
2019-09-09 20:00:00 25 8 Sudeste 19 Sudeste 0 1007.1 -0.5 66
2019-09-09 19:00:00 26.3 10 Sudeste 28 Sudeste 0 1007.1 -1.2 63
2019-09-09 18:00:00 27.2 15 Sudeste 28 Sudeste 0 1007.2 -1.9 58
2019-09-09 17:00:00 29.1 13 Sudeste 31 Sudeste 0 1007.6 -2.6 50
2019-09-09 16:00:00 29.6 13 Sudeste 31 Sudeste 0 1008.3 -2.8 45
2019-09-09 15:00:00 31.1 14 Sudeste 27 Sur 0 1009.1 -2.8 37
2019-09-09 14:00:00 30.4 11 Sur 22 Sur 0 1010.2 -2.1 33
2019-09-09 13:00:00 27.5 4 Sudeste 13 Este 0 1011.1 -1.1 34
2019-09-09 12:00:00 25.7 5 Noroeste 24 Norte 0 1011.9 0 33
2019-09-09 11:00:00 24.7 9 Norte 23 Noroeste 0 1012.3 0.5 34
2019-09-09 10:00:00 21.1 13 Norte 27 Norte 0 1012.2 0.4 40
2019-09-09 09:00:00 20.3 11 Norte 22 Noroeste 0 1011.9 0.1 41
2019-09-09 08:00:00 20 9 Norte 16 Norte 0 1011.8 -0.3 41
2019-09-09 07:00:00 19.8 8 Norte 16 Norte 0 1011.8 -0.6 41
2019-09-09 06:00:00 19.5 10 Norte 14 Norte 0 1011.8 -0.8 44
2019-09-09 05:00:00 19.1 6 Norte 11 Norte 0 1012.1 -0.7 47
2019-09-09 04:00:00 19.5 5 Noroeste 15 Norte 0 1012.4 -0.1 47
2019-09-09 03:00:00 19.6 8 Norte 14 Norte 0 1012.6 -0.2 59
2019-09-09 02:00:00 20.2 11 Oeste 21 Nordeste 0 1012.8 0.1 74
2019-09-09 01:00:00 20.2 9 Norte 17 Norte 0 1012.5 0.2 81
2019-09-09 00:00:00 20.7 7 Noroeste 9 Noroeste 0 1012.8 1.3 78
2019-09-08 23:00:00 22.1 2 Sudeste 10 Sudeste 0 1012.7 1.9 77
2019-09-08 22:00:00 22.9 6 Sudeste 16 Sudeste 0 1012.3 2 74
2019-09-08 21:00:00 23.9 9 Sudeste 19 Sudeste 0 1011.5 1.1 70
2019-09-08 20:00:00 25.7 12 Sur 25 Sur 0 1010.8 0.2 60
2019-09-08 19:00:00 28 13 Sur 31 Sur 0 1010.3 -0.9 53
2019-09-08 18:00:00 30 17 Sur 30 Sudoeste 0 1010.4 -1.2 44
2019-09-08 17:00:00 30.9 15 Sur 30 Sur 0 1010.6 -1.5 36
2019-09-08 16:00:00 31.5 9 Sudeste 23 Sur 0 1011.2 -1.3 30
2019-09-08 15:00:00 31.8 10 Sur 25 Sur 0 1011.6 -1.3 26
2019-09-08 14:00:00 30.4 10 Sudeste 18 Sur 0 1012.1 -1 29
2019-09-08 13:00:00 30.4 7 Sur 18 Sur 0 1012.5 -0.9 27
2019-09-08 12:00:00 28 10 Sudoeste 22 Nordeste 0 1012.9 -0.5 32
2019-09-08 11:00:00 26.3 8 Norte 27 Nordeste 0 1013.1 -0.4 38
2019-09-08 10:00:00 23.7 13 Nordeste 27 Norte 0 1013.4 0 43
2019-09-08 09:00:00 20.7 11 Norte 23 Norte 0 1013.4 0.2 52
2019-09-08 08:00:00 18.1 13 Norte 27 Nordeste 0 1013.5 0.3 59
2019-09-08 07:00:00 18.4 10 Norte 29 Norte 0 1013.4 -0.1 52
2019-09-08 06:00:00 18.4 11 Norte 24 Norte 0 1013.2 -0.5 53
2019-09-08 05:00:00 19.1 13 Norte 24 Norte 0 1013.2 -1 50
2019-09-08 04:00:00 18.4 11 Norte 19 Norte 0 1013.5 -1.1 53
2019-09-08 03:00:00 18.2 8 Noroeste 19 Norte 0 1013.7 -0.8 64
2019-09-08 02:00:00 18.7 10 Norte 18 Norte 0 1014.2 -0.1 68
2019-09-08 01:00:00 19.1 6 Norte 11 Noroeste 0 1014.6 0.6 68
2019-09-08 00:00:00 19.4 5 Norte 9 Noroeste 0 1014.5 1 67
2019-09-07 23:00:00 20.8 3 Sudeste 15 Sudeste 0 1014.3 1.4 64
2019-09-07 22:00:00 21.6 8 Sudeste 15 Sudeste 0 1014 1.3 61
2019-09-07 21:00:00 22.7 8 Sudeste 16 Sur 0 1013.5 0.6 54
2019-09-07 20:00:00 24.5 8 Sudeste 22 Sudeste 0 1012.9 -0.4 47
2019-09-07 19:00:00 26 10 Sudeste 23 Sudeste 0 1012.7 -0.8 41
2019-09-07 18:00:00 25.9 13 Sudeste 28 Sudeste 0 1012.9 -1.4 40
2019-09-07 17:00:00 27.9 15 Sudeste 28 Sudeste 0 1013.3 -1.9 37
2019-09-07 16:00:00 30.3 7 Sur 19 Nordeste 0 1013.5 -1.8 27
2019-09-07 15:00:00 30.1 5 Nordeste 27 Nordeste 0 1014.3 -1.7 27
2019-09-07 14:00:00 29.6 11 Norte 28 Norte 0 1015.2 -1.1 28
2019-09-07 13:00:00 28.5 13 Norte 31 Norte 0 1015.3 -1.2 29
2019-09-07 12:00:00 26.8 15 Nordeste 33 Nordeste 0 1016 -0.5 32
2019-09-07 11:00:00 24.6 16 Norte 31 Nordeste 0 1016.3 0.2 35
2019-09-07 10:00:00 21.2 13 Norte 30 Norte 0 1016.5 0.6 42
2019-09-07 09:00:00 18.6 13 Norte 26 Norte 0 1016.5 0.9 50
2019-09-07 08:00:00 17.3 12 Norte 27 Norte 0 1016.1 0.3 52
2019-09-07 07:00:00 17.3 13 Norte 28 Nordeste 0 1015.9 0.1 51
2019-09-07 06:00:00 17.8 9 Norte 30 Norte 0 1015.6 -0.4 49
2019-09-07 05:00:00 18.1 11 Norte 29 Norte 0 1015.8 -0.4 46
2019-09-07 04:00:00 18.2 13 Norte 28 Norte 0 1015.8 -0.1 46
2019-09-07 03:00:00 19.1 12 Norte 35 Norte 0 1016 0.6 42
2019-09-07 02:00:00 19.6 12 Noroeste 30 Noroeste 0 1016.2 0.9 40
2019-09-07 01:00:00 20 8 Norte 32 Norte 0 1015.9 1.1 39
2019-09-07 00:00:00 20.2 14 Norte 31 Norte 0 1015.4 1.4 39
2019-09-06 23:00:00 20.2 5 Noroeste 12 Noroeste 0 1015.3 1.8 65
2019-09-06 22:00:00 21.6 5 Sur 12 Sudeste 0 1014.8 1.7 67
2019-09-06 21:00:00 23 5 Sudeste 21 Sur 0 1014 0.8 61
2019-09-06 20:00:00 25.2 11 Sur 23 Sur 0 1013.5 0.3 49
2019-09-06 19:00:00 27.7 10 Sur 21 Sudeste 0 1013.1 -0.6 37
2019-09-06 18:00:00 29 10 Sudeste 28 Sur 0 1013.2 -1.2 30
2019-09-06 17:00:00 30.1 9 Sudeste 24 Oeste 0 1013.2 -1.8 26
2019-09-06 16:00:00 30.4 9 Norte 35 Noroeste 0 1013.7 -1.7 23
2019-09-06 15:00:00 29.2 14 Noroeste 30 Oeste 0 1014.4 -1.5 23
2019-09-06 14:00:00 28.1 14 Noroeste 30 Noroeste 0 1015 -1 25
2019-09-06 13:00:00 26.8 10 Oeste 28 Noroeste 0 1015.4 -0.7 28
2019-09-06 12:00:00 24.8 14 Noroeste 28 Oeste 0 1015.9 -0.2 31
2019-09-06 11:00:00 22.5 19 Noroeste 49 Noroeste 0 1016 -0.2 37
2019-09-06 10:00:00 20.2 23 Noroeste 46 Noroeste 0 1016.1 0.3 42
2019-09-06 09:00:00 19.4 18 Noroeste 44 Noroeste 0 1016.1 0.7 46
2019-09-06 08:00:00 17.3 11 Norte 37 Noroeste 0 1016.2 1.2 52
2019-09-06 07:00:00 17.7 17 Noroeste 46 Noroeste 0 1015.8 0.8 50
2019-09-06 06:00:00 18 21 Noroeste 57 Noroeste 0 1015.4 0.6 49
2019-09-06 05:00:00 18.3 22 Noroeste 49 Noroeste 0 1015 0 48
2019-09-06 04:00:00 18.3 14 Noroeste 41 Noroeste 0 1015 0.3 47
2019-09-06 03:00:00 19 14 Norte 47 Noroeste 0 1014.8 0.1 45
2019-09-06 02:00:00 19.6 17 Norte 44 Noroeste 0 1015 0.5 44
2019-09-06 01:00:00 20.4 25 Noroeste 53 Noroeste 0 1014.7 0.4 41
2019-09-06 00:00:00 21 22 Noroeste 54 Noroeste 0 1014.7 1.3 40
2019-09-05 23:00:00 21.7 16 Noroeste 51 Oeste 0 1014.5 1.8 38
2019-09-05 22:00:00 22.8 17 Noroeste 50 Noroeste 0 1014.3 2 34
2019-09-05 21:00:00 23.9 13 Noroeste 49 Oeste 0 1013.4 1.1 31
2019-09-05 20:00:00 25.3 23 Noroeste 48 Noroeste 0 1012.7 0.4 26
2019-09-05 19:00:00 27.1 22 Noroeste 49 Noroeste 0 1012.3 -0.5 25
2019-09-05 18:00:00 28.6 24 Oeste 42 Noroeste 0 1012.3 -1 23
2019-09-05 17:00:00 29.9 14 Noroeste 38 Noroeste 0 1012.3 -1.4 24
2019-09-05 16:00:00 29.6 18 Noroeste 37 Noroeste 0 1012.8 -1.1 23
2019-09-05 15:00:00 29.4 17 Oeste 41 Oeste 0 1013.3 -0.9 25
2019-09-05 14:00:00 28.3 15 Noroeste 38 Oeste 0 1013.7 -0.5 29
2019-09-05 13:00:00 26.6 21 Noroeste 53 Oeste 0 1013.9 0.2 32
2019-09-05 12:00:00 25.4 19 Noroeste 46 Oeste 0 1014.2 0.8 36
2019-09-05 11:00:00 24.3 24 Oeste 62 Noroeste 0 1014.2 0.7 42
2019-09-05 10:00:00 23 24 Noroeste 59 Noroeste 0 1013.7 1 47
2019-09-05 09:00:00 22 25 Noroeste 63 Noroeste 0 1013.4 0.8 49
2019-09-05 08:00:00 20.7 32 Noroeste 57 Oeste 0 1013.5 1 50
2019-09-05 07:00:00 20.4 24 Noroeste 55 Oeste 0 1012.7 0.2 49
2019-09-05 06:00:00 20.5 18 Noroeste 39 Oeste 0 1012.6 0 48
2019-09-05 05:00:00 20.8 15 Noroeste 41 Noroeste 0 1012.5 -0.3 46
2019-09-05 04:00:00 21.7 19 Noroeste 44 Noroeste 0 1012.5 -0.4 42
2019-09-05 03:00:00 22.4 13 Noroeste 39 Oeste 0 1012.6 -0.3 41
2019-09-05 02:00:00 22.9 7 Noroeste 30 Noroeste 0 1012.8 0 39
2019-09-05 01:00:00 23.4 9 Norte 28 Noroeste 0 1012.9 0.8 41
2019-09-05 00:00:00 24.5 13 Noroeste 31 Noroeste 0 1012.9 1.3 42
2019-09-04 23:00:00 23.8 6 Noroeste 13 Noroeste 0 1012.8 1.6 79
2019-09-04 22:00:00 24.9 4 Sudeste 13 Sur 0 1012.1 0.9 75
2019-09-04 21:00:00 26.1 8 Sur 25 Sur 0 1011.6 0.4 68
2019-09-04 20:00:00 28.1 12 Sur 28 Sur 0 1011.2 -0.4 59
2019-09-04 19:00:00 30.4 12 Sur 25 Sudoeste 0 1011.2 -0.8 51
2019-09-04 18:00:00 30.7 14 Sudeste 30 Este 0 1011.2 -1.3 48
2019-09-04 17:00:00 31.8 14 Sudeste 31 Sur 0 1011.6 -1.4 40
2019-09-04 16:00:00 32.1 15 Sudeste 27 Sudeste 0 1012 -1.7 44
2019-09-04 15:00:00 33.4 16 Sudeste 28 Sudeste 0 1012.5 -1.9 44
2019-09-04 14:00:00 32.6 7 Sudeste 18 Sudeste 0 1013 -1.6 38
2019-09-04 13:00:00 31.8 4 Este 11 Sudeste 0 1013.7 -1.1 35
2019-09-04 12:00:00 30.2 4 Este 12 Este 0 1014.4 -0.2 41
2019-09-04 11:00:00 28.1 5 Norte 16 Nordeste 0 1014.6 0 41
2019-09-04 10:00:00 24.7 6 Norte 15 Norte 0 1014.8 0.4 54
2019-09-04 09:00:00 21.6 7 Norte 15 Norte 0 1014.6 0.3 71
2019-09-04 08:00:00 18.2 9 Norte 14 Norte 0 1014.6 -0.1 87
2019-09-04 07:00:00 18.1 3 Norte 7 Norte 0 1014.4 -0.8 88
2019-09-04 06:00:00 18.7 5 Norte 14 Noroeste 0 1014.3 -1.4 86
2019-09-04 05:00:00 19.1 5 Norte 10 Noroeste 0 1014.7 -1 85
2019-09-04 04:00:00 19.6 6 Noroeste 7 Noroeste 0 1015.2 -0.6 84
2019-09-04 03:00:00 20.4 6 Noroeste 7 Noroeste 0 1015.7 0 81
2019-09-04 02:00:00 20.9 4 Nordeste 5 Norte 0 1015.7 0.1 81
2019-09-04 01:00:00 21.7 4 Oeste 8 Oeste 0 1015.8 0.5 78
2019-09-04 00:00:00 22.5 3 Noroeste 7 Sur 0 1015.7 0.8 77
2019-09-03 23:00:00 23.1 6 Sur 10 Sur 0 1015.6 1 73
2019-09-03 22:00:00 24 5 Sur 16 Sudeste 0 1015.3 1 68
2019-09-03 21:00:00 25.1 9 Sudeste 18 Sur 0 1014.9 0.6 63
2019-09-03 20:00:00 27.2 12 Sur 26 Sur 0 1014.6 0 54
2019-09-03 19:00:00 29.5 12 Sudeste 23 Sudeste 0 1014.3 -0.5 39
2019-09-03 18:00:00 30.2 15 Sudeste 25 Sudeste 0 1014.3 -0.8 38
2019-09-03 17:00:00 30.9 14 Sudeste 28 Sudeste 0 1014.6 -0.8 32
2019-09-03 16:00:00 32 13 Sudeste 27 Sur 0 1014.8 -- 30
2019-09-03 15:00:00 32.7 13 Sudeste 26 Sudeste 0 1015.1 -1.5 30
2019-09-03 14:00:00 31.5 7 Este -- -- 0 1015.4 -1.3 29
2019-09-03 13:00:00 31.2 -- -- -- -- 0 -- -- 29
2019-09-03 12:00:00 28.8 -- -- -- -- 0 1016.6 -0.2 32
2019-09-03 11:00:00 26.7 -- -- -- -- 0 1016.7 0 35
2019-09-03 10:00:00 24.1 -- -- -- -- 0 1016.8 0.7 39
2019-09-03 09:00:00 22.1 -- -- -- -- 0 1016.8 0.9 45
2019-09-03 08:00:00 18.9 13 Norte 25 Norte 0 1016.7 0.8 53
2019-09-03 07:00:00 18.9 13 Norte 25 Norte 0 1016.1 0.1 52
2019-09-03 06:00:00 19.3 12 Norte 26 Norte 0 1015.9 0 51
2019-09-03 05:00:00 19.7 10 Norte 23 Norte 0 1015.9 -0.1 50
2019-09-03 04:00:00 20.4 13 Norte 27 Norte 0 1016 0.1 47
2019-09-03 03:00:00 21 10 Norte 22 Noroeste 0 1015.9 0.4 46
2019-09-03 02:00:00 21.3 10 Norte 20 Noroeste 0 1016 0.9 45
2019-09-03 01:00:00 21.6 6 Norte 22 Noroeste 0 1015.9 1.4 44
2019-09-03 00:00:00 21.9 8 Norte 18 Norte 0 1015.5 1.9 44
2019-09-02 23:00:00 22.7 10 Noroeste 15 Noroeste 0 1015.1 2.2 48
2019-09-02 22:00:00 23.7 5 Noroeste 12 Sur 0 1014.5 2 72
2019-09-02 21:00:00 25.4 5 Sur 23 Sur 0 1013.6 1.2 64
2019-09-02 20:00:00 27.9 14 Sur 22 Noroeste 0 1012.9 0.3 52
2019-09-02 19:00:00 30.6 10 Oeste 24 Noroeste 0 1012.5 -0.5 25
2019-09-02 18:00:00 31.2 10 Noroeste 32 Noroeste 0 1012.4 -1.1 26
2019-09-02 17:00:00 31.6 14 Noroeste 33 Noroeste 0 1012.6 -1.5 26
2019-09-02 16:00:00 31 16 Noroeste 32 Noroeste 0 1013 -1.4 29
2019-09-02 15:00:00 30.9 13 Noroeste 35 Noroeste 0 1013.5 -1.1 30
2019-09-02 14:00:00 29.3 16 Noroeste 36 Noroeste 0 1014.1 -0.8 34
2019-09-02 13:00:00 28.4 14 Noroeste 30 Noroeste 0 1014.4 -0.2 34
2019-09-02 12:00:00 27.8 9 Norte 37 Noroeste 0 1014.6 0.5 37
2019-09-02 11:00:00 24.6 18 Noroeste 46 Noroeste 0 1014.9 1.6 45
2019-09-02 10:00:00 23.2 24 Noroeste 46 Noroeste 0 1014.6 2.4 47
2019-09-02 09:00:00 21.8 19 Noroeste 43 Noroeste 0 1014.1 2.2 57
2019-09-02 08:00:00 22.3 14 Noroeste 37 Noroeste 0 1013.3 1.4 57
2019-09-02 07:00:00 22.1 12 Norte 36 Oeste 0 1012.2 0.2 59
2019-09-02 06:00:00 22.9 17 Noroeste 35 Noroeste 0 1011.9 0.1 58
2019-09-02 05:00:00 22.5 10 Norte 26 Norte 0 1011.9 0.8 63
2019-09-02 04:00:00 23 6 Norte 41 Oeste 0.2 1012 0.9 63
2019-09-02 03:00:00 23.4 5 Sudeste 40 Noroeste 0 1011.8 1 68
2019-09-02 02:00:00 25.1 14 Noroeste 35 Noroeste 0 1011.1 0.2 56
2019-09-02 01:00:00 25.4 8 Norte 36 Noroeste 0 1011.1 0.7 54
2019-09-02 00:00:00 25.4 13 Norte 31 Noroeste 0 1010.8 1.5 51
2019-09-01 23:00:00 23.4 10 Norte 28 Norte 0 1010.9 1.5 75
2019-09-01 22:00:00 23.1 7 Norte 12 Este 0.2 1010.4 1.6 82
2019-09-01 21:00:00 23.2 10 Sur 25 Sur 0 1009.3 1.7 80
2019-09-01 20:00:00 25.4 7 Sudeste 28 Sudoeste 0.2 1009.4 1.7 71
2019-09-01 19:00:00 28.2 10 Sudeste 28 Sudeste 0 1008.8 0.8 68
2019-09-01 18:00:00 31.3 13 Sur 27 Sudeste 0 1007.6 -0.9 56
2019-09-01 17:00:00 32.2 13 Sur 25 Sudeste 0 1007.7 -1.2 56
2019-09-01 16:00:00 32.2 13 Sudeste 22 Sur 0 1008 -1.5 55
2019-09-01 15:00:00 33 11 Sudeste 23 Sur 0 1008.5 -1.5 49
2019-09-01 14:00:00 32.9 9 Sudeste 21 Sudeste 0 1008.9 -1.2 51
2019-09-01 13:00:00 31.7 5 Sudeste 15 Sur 0 1009.5 -0.4 53
2019-09-01 12:00:00 30.4 6 Este 13 Nordeste 0 1010 0.3 55
2019-09-01 11:00:00 29.4 6 Norte 14 Nordeste 0 1010.1 0.8 52
2019-09-01 10:00:00 24.4 2 Este 5 Noroeste 0 1009.9 0.8 80
2019-09-01 09:00:00 23.1 3 Norte 5 Norte 0 1009.7 0.9 85
2019-09-01 08:00:00 23 3 Norte 12 Norte 0 1009.3 0.3 83
2019-09-01 07:00:00 22.6 6 Norte 10 Norte 0 1009.1 -0.2 84
2019-09-01 06:00:00 22.7 6 Noroeste 8 Noroeste 0 1008.8 -0.9 85
2019-09-01 05:00:00 23.1 5 Noroeste 6 Norte 0 1009 -0.8 83
2019-09-01 04:00:00 23.6 3 Este 10 Oeste 0 1009.3 -0.4 83
2019-09-01 03:00:00 23.6 6 Oeste 8 Oeste 0 1009.7 0 82
2019-09-01 02:00:00 23.8 3 Sur 9 Sudoeste 0 1009.8 0 81
2019-09-01 01:00:00 24 6 Sudoeste 9 Sudoeste 0 1009.7 -0.1 79
2019-09-01 00:00:00 24.9 4 Sur 12 Sudoeste 0 1009.7 0.1 73
2019-08-31 23:00:00 25.6 6 Sudoeste 14 Sudoeste 0 1009.8 1.2 69
2019-08-31 22:00:00 26.4 10 Sudoeste 17 Sudoeste 0 1009.8 1.5 63
2019-08-31 21:00:00 28.2 4 Sur 24 Este 0 1009.6 1.6 53
2019-08-31 20:00:00 30.8 6 Sudeste 13 Sudeste 0 1008.6 1 42
2019-08-31 19:00:00 33 7 Sudeste 21 Sudeste 0 1008.3 -0.3 36
2019-08-31 18:00:00 33.8 9 Sudeste 23 Sudeste 0 1008 -1.5 33
2019-08-31 17:00:00 36 13 Sudeste 25 Sudeste 0 1007.6 -2.4 30
2019-08-31 16:00:00 35.1 12 Sudeste 26 Este 0 1008.6 -2.2 31
2019-08-31 15:00:00 34.7 11 Sudeste 26 Sudeste 0 1009.5 -1.7 36
2019-08-31 14:00:00 35.6 12 Sudeste 21 Sur 0 1010 -1.4 39
2019-08-31 13:00:00 34.5 8 Sur 16 Sur 0 1010.8 -0.6 38
2019-08-31 12:00:00 32.1 7 Sur 14 Sur 0 1011.2 -0.1 45
2019-08-31 11:00:00 29.3 5 Sudeste 8 Este 0 1011.4 0.3 54
2019-08-31 10:00:00 26.1 3 Este 5 Este 0 1011.4 0.8 68
2019-08-31 09:00:00 22.6 2 Norte 6 Noroeste 0 1011.3 0.6 80
2019-08-31 08:00:00 19.6 3 Norte 13 Norte 0 1011.1 -0.1 90
2019-08-31 07:00:00 19.7 4 Norte 7 Norte 0 1010.6 -1.1 89
2019-08-31 06:00:00 20.2 4 Norte 12 Norte 0 1010.7 -1.5 88
2019-08-31 05:00:00 20.7 4 Norte 9 Noroeste 0 1011.2 -1.4 87
2019-08-31 04:00:00 21.2 5 Norte 7 Noroeste 0 1011.7 -0.9 87
2019-08-31 03:00:00 22.1 7 Noroeste 8 Noroeste 0 1012.2 -0.9 81
2019-08-31 02:00:00 22.5 5 Noroeste 7 Norte 0 1012.6 -0.7 86
2019-08-31 01:00:00 23.4 4 Sudoeste 9 Sudoeste 0 1012.6 -0.6 86
2019-08-31 00:00:00 24.1 3 Sudoeste 10 Sudoeste 0 1013.1 0.4 82
2019-08-30 23:00:00 25 7 Sudoeste 10 Sudoeste 0 1013.3 0.7 77
2019-08-30 22:00:00 25.8 4 Sudoeste 13 Sudeste 0 1013.2 0.4 71
2019-08-30 21:00:00 26.8 8 Sudeste 17 Sudeste 0 1012.7 0.4 68
2019-08-30 20:00:00 28.6 9 Sudeste 21 Sudeste 0 1012.6 -0.1 63
2019-08-30 19:00:00 29.9 9 Sudeste 21 Sudeste 0 1012.8 -0.3 55
2019-08-30 18:00:00 32.3 10 Sudeste 28 Sudeste 0 1012.3 -1.5 43
2019-08-30 17:00:00 32.7 12 Sudeste 27 Este 0 1012.7 -1.7 38
2019-08-30 16:00:00 33.9 12 Sudeste 26 Sudeste 0 1013.1 -1.9 41
2019-08-30 15:00:00 34.7 13 Sudeste 23 Sur 0 1013.8 -1.4 42
2019-08-30 14:00:00 34.5 12 Sudeste 23 Sudeste 0 1014.4 -1 44
2019-08-30 13:00:00 33 9 Sudeste 19 Sudeste 0 1015 -0.4 44
2019-08-30 12:00:00 31.2 10 Sur 15 Sur 0 1015.2 -0.2 49
2019-08-30 11:00:00 28.9 5 Este 9 Este 0 1015.4 0.1 55
2019-08-30 10:00:00 25.5 3 Norte 9 Norte 0 1015.4 0.6 68
2019-08-30 09:00:00 22.4 5 Norte 11 Norte 0 1015.4 0.9 83
2019-08-30 08:00:00 20 4 Norte 8 Norte 0 1015.3 0.9 92
2019-08-30 07:00:00 20.1 4 Oeste 5 Oeste 0 1014.8 0.4 92
2019-08-30 06:00:00 20.1 3 Sudeste 7 Noroeste 0 1014.5 0 92
2019-08-30 05:00:00 20.4 7 Noroeste 11 Norte 0 1014.4 -0.5 90
2019-08-30 04:00:00 20.7 5 Noroeste 12 Noroeste 0 1014.4 -0.4 90
2019-08-30 03:00:00 21.5 3 Norte 9 Noroeste 0 1014.5 -0.3 89
2019-08-30 02:00:00 22.1 5 Noroeste 7 Norte 0 1014.9 0 88
2019-08-30 01:00:00 23 3 Este 11 Sudoeste 0 1014.8 0.3 85
2019-08-30 00:00:00 23.8 7 Sudoeste 11 Sudoeste 0 1014.8 1.1 81
2019-08-29 23:00:00 24.3 2 Sudoeste 12 Sur 0 1014.9 1.5 78
2019-08-29 22:00:00 25.1 8 Sur 13 Sur 0 1014.5 1.3 72
2019-08-29 21:00:00 26.5 6 Sudeste 17 Sudeste 0 1013.7 0.4 67
2019-08-29 20:00:00 28.3 6 Sudeste 18 Sudeste 0 1013.4 0 60
2019-08-29 19:00:00 29.5 10 Sudeste 21 Sur 0 1013.2 -0.5 53
2019-08-29 18:00:00 29.6 10 Sudeste 27 Sudeste 0 1013.3 -0.8 57
2019-08-29 17:00:00 30.1 12 Sudeste 29 Sudeste 0 1013.4 -1.2 54
2019-08-29 16:00:00 32.5 14 Sudeste 30 Sudeste 0 1013.7 -1.3 51
2019-08-29 15:00:00 33 12 Sur 22 Sur 0 1014.1 -0.7 49
2019-08-29 14:00:00 31.6 11 Sudeste 23 Sudeste 0 1014.6 -0.2 55
2019-08-29 13:00:00 30.6 13 Sur 20 Sur 0 1015 0.4 54
2019-08-29 12:00:00 30.4 8 Sur 15 Sur 0 1014.8 -- 47
2019-08-29 11:00:00 28.1 4 Sudeste 10 Nordeste 0 1014.8 0.8 57
2019-08-29 10:00:00 25.4 5 Norte 10 Nordeste 0 1014.6 0.8 72
2019-08-29 09:00:00 21.9 -- -- 9 Norte 0 -- -- 85
2019-08-29 08:00:00 19.2 6 Norte 10 Norte 0 1014 0.7 94
2019-08-29 07:00:00 19 3 Norte 9 Norte 0 1013.8 0.5 92
2019-08-29 06:00:00 19.4 7 Noroeste 10 Norte 0 1013.4 0 92
2019-08-29 05:00:00 20 6 Norte 7 Norte 0 1013.3 -0.3 92
2019-08-29 04:00:00 20.5 4 Norte 5 Norte 0 1013.3 -0.2 91
2019-08-29 03:00:00 20.9 0 Calma 7 Sudoeste 0 1013.4 0 90
2019-08-29 02:00:00 21.6 5 Sudoeste 9 Sudoeste 0 1013.6 0.6 87
2019-08-29 01:00:00 22.3 8 Oeste 9 Sudoeste 0 1013.5 1 84
2019-08-29 00:00:00 22.9 4 Sudoeste 11 Sudoeste 0 1013.4 1.8 81
2019-08-28 23:00:00 23.7 6 Oeste 8 Oeste 0 1013 2 77
2019-08-28 22:00:00 24.5 5 Sur 12 Sudeste 0 1012.5 1.8 73
2019-08-28 21:00:00 25.8 8 Sudeste 15 Este 0 1011.6 0.7 67
2019-08-28 20:00:00 27.5 9 Sudeste 24 Este 0 1011 -0.1 53
2019-08-28 19:00:00 29.5 11 Sudeste 24 Sudeste 0 1010.7 -0.6 47
2019-08-28 18:00:00 30.9 11 Sudeste 25 Sudeste 0 1010.9 -0.6 48
2019-08-28 17:00:00 31.5 13 Sudeste 24 Sudeste 0 1011.1 -0.8 46
2019-08-28 16:00:00 32 14 Sudeste 26 Sudeste 0 1011.3 -0.9 49
2019-08-28 15:00:00 33.1 10 Sur 21 Sudeste 0 1011.5 -0.9 43
2019-08-28 14:00:00 31.2 8 Este 16 Este 0 1011.9 -0.5 39
2019-08-28 13:00:00 30.9 6 Norte 19 Nordeste 0 1012.2 -0.1 41
2019-08-28 12:00:00 29.1 9 Norte 21 Nordeste 0 1012.4 -0.1 54
2019-08-28 11:00:00 26.9 7 Norte 21 Norte 0 1012.4 0.1 65
2019-08-28 10:00:00 23.8 5 Norte 17 Norte 0 1012.3 0.7 76
2019-08-28 09:00:00 20.7 8 Norte 15 Norte 0 1012.5 1.2 88
2019-08-28 08:00:00 18.3 5 Norte 11 Norte 0 1012.3 0.8 98
2019-08-28 07:00:00 18.1 3 Norte 8 Norte 0 1011.6 -0.3 97
2019-08-28 06:00:00 18.1 4 Norte 16 Noroeste 0 1011.3 -0.8 97
2019-08-28 05:00:00 18.4 7 Noroeste 13 Norte 0.2 1011.5 -1 97
2019-08-28 04:00:00 18.7 8 Noroeste 12 Noroeste 0 1011.9 -0.5 98
2019-08-28 03:00:00 18.5 5 Norte 10 Noroeste 0 1012.1 -0.2 97
2019-08-28 02:00:00 18.8 6 Norte 9 Norte 0 1012.5 0.5 97
2019-08-28 01:00:00 19.1 5 Norte 9 Noroeste 0 1012.4 0.8 96
2019-08-28 00:00:00 19.5 6 Norte 11 Norte 0 1012.3 0.8 97
2019-08-27 23:00:00 19.8 5 Norte 12 Oeste 0 1012 1.2 97
2019-08-27 22:00:00 20.1 2 Noroeste 12 Norte 0 1011.6 1.3 96
2019-08-27 21:00:00 20.4 5 Norte 10 Sudeste 0.4 1011.5 0.6 96
2019-08-27 20:00:00 20.6 5 Sudeste 13 Este 0 1010.8 -0.8 96
2019-08-27 19:00:00 20.6 5 Oeste 9 Sudeste 0.4 1010.3 -1.6 96
2019-08-27 18:00:00 20.4 3 Este 18 Oeste 1.4 1010.9 0 95
2019-08-27 17:00:00 20.4 9 Noroeste 21 Norte 4.6 1011.6 0.6 94
2019-08-27 16:00:00 21.4 3 Noroeste 25 Este 9.8 1011.9 0.4 85
2019-08-27 15:00:00 25.1 6 Norte 20 Nordeste 0 1010.9 -1.5 67
2019-08-27 14:00:00 26.5 4 Sudoeste 11 Oeste 0 1011 -1 65
2019-08-27 13:00:00 25.5 5 Norte 14 Nordeste 0 1011.5 0.1 68
2019-08-27 12:00:00 24.8 4 Norte 9 Noroeste 0 1012.4 1.5 70
2019-08-27 11:00:00 23.4 0 Calma 10 Noroeste 0 1012 1.8 74
2019-08-27 10:00:00 22.7 3 Noroeste 8 Nordeste 0 1011.4 0 77
2019-08-27 09:00:00 21.2 6 Norte 12 Noroeste 0 1010.9 -0.7 89
2019-08-27 08:00:00 20.2 9 Noroeste 26 Norte 0 1010.2 0 91
2019-08-27 07:00:00 22 6 Noroeste 16 Nordeste 1 1011.4 0.2 94
2019-08-27 06:00:00 22.5 5 Nordeste 18 Norte 0.6 1011.6 0.2 92
2019-08-27 05:00:00 22.8 9 Noroeste 16 Norte 0 1010.2 -1.6 90
2019-08-27 04:00:00 23.1 7 Norte 11 Norte 0 1011.2 0.8 92
2019-08-27 03:00:00 23.5 5 Norte 21 Sur 0 1011.4 0.9 86
2019-08-27 02:00:00 24 13 Sur 23 Sur 0 1011.8 0.3 85
2019-08-27 01:00:00 23.9 10 Sudoeste 17 Sudoeste 0 1010.4 0 83
2019-08-27 00:00:00 24.5 6 Nordeste 19 Sur 0 1010.5 0.6 82
2019-08-26 23:00:00 24.7 9 Sur 15 Sudoeste 0 1011.5 1.4 80
2019-08-26 22:00:00 24.9 7 Sur 21 Sudeste 0 1010.4 0 78
2019-08-26 21:00:00 25.5 12 Sudeste 26 Sudeste 0 1009.9 -0.6 74
2019-08-26 20:00:00 26.7 14 Sudeste 26 Sudeste 0 1010.1 -0.8 69
2019-08-26 19:00:00 28.5 14 Sudeste 30 Sudeste 0 1010.4 -0.3 59
2019-08-26 18:00:00 30.8 14 Sudeste 27 Sudeste 0 1010.5 -1.6 50
2019-08-26 17:00:00 31.4 12 Sudeste 23 Sur 0 1010.9 -1.7 46
2019-08-26 16:00:00 29.4 7 Sudeste 26 Sudeste 0 1010.7 -1.8 54
2019-08-26 15:00:00 29.8 11 Sudeste 25 Sudeste 0 1012.1 -0.3 58
2019-08-26 14:00:00 31.4 13 Sudeste 28 Sur 0 1012.6 0.3 51
2019-08-26 13:00:00 32.3 12 Sudeste 21 Sudeste 0 1012.5 0.1 44
2019-08-26 12:00:00 30.5 11 Sur 16 Sur 0 1012.4 -0.2 51
2019-08-26 11:00:00 28.2 5 Sur 10 Sur 0 1012.3 -0.4 61
2019-08-26 10:00:00 24.9 0 Calma 8 Nordeste 0 1012.4 0.3 73
2019-08-26 09:00:00 21.8 3 Norte 8 Noroeste 0 1012.6 0.9 82
2019-08-26 08:00:00 19.8 3 Norte 6 Norte 0 1012.7 0.7 88
2019-08-26 07:00:00 19.6 3 Nordeste 6 Oeste 0 1012.1 0 88
2019-08-26 06:00:00 19.7 3 Nordeste 4 Oeste 0 1011.7 -0.6 85
2019-08-26 05:00:00 20.2 5 Noroeste 8 Noroeste 0 1012 -0.4 85
2019-08-26 04:00:00 20.7 2 Norte 7 Norte 0 1012.1 -0.6 86
2019-08-26 03:00:00 21.7 2 Este 8 Noroeste 0 1012.3 -0.2 83
2019-08-26 02:00:00 22.2 6 Noroeste 9 Sudoeste 0 1012.4 0.1 83
2019-08-26 01:00:00 22.9 6 Sudoeste 9 Sur 0 1012.7 0.7 84
2019-08-26 00:00:00 23.6 4 Sudoeste 13 Sudeste 0 1012.5 1.2 82
2019-08-25 23:00:00 24.3 8 Sudeste 17 Sudeste 0 1012.3 1.2 75
2019-08-25 22:00:00 25.3 7 Sur 15 Sudeste 0 1012 0.8 68
2019-08-25 21:00:00 26.9 9 Sudeste 20 Sudeste 0 1011.3 0.2 60
2019-08-25 20:00:00 29.5 9 Sudeste 28 Sur 0 1011.1 -0.2 42
2019-08-25 19:00:00 31.3 13 Sudeste 30 Sudeste 0 1011.2 -0.3 45
2019-08-25 18:00:00 32.2 12 Sudeste 31 Sudeste 0 1011.1 -0.6 39
2019-08-25 17:00:00 32.1 17 Sudeste 33 Sudeste 0 1011.3 -0.7 40
2019-08-25 16:00:00 32.4 17 Sudeste 31 Sudeste 0 1011.5 -1 40
2019-08-25 15:00:00 33.6 16 Sudeste 30 Sudeste 0 1011.7 -1.4 43
2019-08-25 14:00:00 33.6 13 Sudeste 24 Sur 0 1012 -1.6 46
2019-08-25 13:00:00 32.5 12 Sur 21 Sur 0 1012.5 -1.1 47
2019-08-25 12:00:00 30.7 8 Sur 17 Sur 0 1013.1 -0.2 48
2019-08-25 11:00:00 28.4 6 Sur 12 Sur 0 1013.6 0.5 56
2019-08-25 10:00:00 25.5 3 Sudoeste 6 Sudoeste 0 1013.6 0.8 73
2019-08-25 09:00:00 22.9 5 Norte 9 Norte 0 1013.3 0.7 81
2019-08-25 08:00:00 20 3 Norte 9 Noroeste 0 1013.1 0.4 92
2019-08-25 07:00:00 19.8 5 Noroeste 9 Noroeste 0 1012.8 -0.3 91
2019-08-25 06:00:00 20.4 0 Calma 5 Sudeste 0 1012.6 -0.6 92
2019-08-25 05:00:00 20.8 2 Norte 5 Norte 0 1012.7 -0.9 91
2019-08-25 04:00:00 21.2 4 Nordeste 6 Nordeste 0 1013.1 -0.5 88
2019-08-25 03:00:00 21.8 3 Sudeste 9 Sudoeste 0 1013.2 -0.5 87
2019-08-25 02:00:00 22.2 7 Sudoeste 10 Oeste 0 1013.6 0 87
2019-08-25 01:00:00 22.7 4 Sur 9 Sur 0 1013.6 0.4 85
2019-08-25 00:00:00 23.2 5 Sur 11 Sudeste 0 1013.7 1.1 82
2019-08-24 23:00:00 24 5 Sudeste 14 Sudeste 0 1013.6 1.4 80
2019-08-24 22:00:00 25 9 Sudeste 19 Sudeste 0 1013.2 1 75
2019-08-24 21:00:00 26.2 11 Sudeste 28 Sudeste 0 1012.6 0.2 68
2019-08-24 20:00:00 28.2 14 Sudeste 26 Sudeste 0 1012.2 -0.5 53
2019-08-24 19:00:00 30.3 14 Sudeste 30 Sudeste 0 1012.2 -0.9 45
2019-08-24 18:00:00 31.7 14 Sudeste 32 Sudeste 0 1012.4 -1 45
2019-08-24 17:00:00 32.7 15 Sudeste 29 Este 0 1012.7 -1.1 40
2019-08-24 16:00:00 33.7 17 Sudeste 31 Sudeste 0 1013.1 -1 38
2019-08-24 15:00:00 34.2 13 Sudeste 26 Sur 0 1013.4 -1.2 40
2019-08-24 14:00:00 33.9 11 Sur 24 Sudeste 0 1013.8 -0.9 42
2019-08-24 13:00:00 32.9 9 Sur 19 Sur 0 1014.1 -0.6 39
2019-08-24 12:00:00 31.1 8 Sur 15 Sudeste 0 1014.6 0 44
2019-08-24 11:00:00 28.3 4 Sudeste 10 Sur 0 1014.7 0.3 57
2019-08-24 10:00:00 25.3 3 Sudeste 7 Sudeste 0 1014.7 0.5 69
2019-08-24 09:00:00 22.6 3 Norte 9 Norte 0 1014.6 0.6 77
2019-08-24 08:00:00 19.3 4 Norte 8 Norte 0 1014.4 0.3 89
2019-08-24 07:00:00 19.1 5 Noroeste 8 Norte 0 1014.2 0 88
2019-08-24 06:00:00 19.6 5 Norte 6 Norte 0 1014 -0.2 88
2019-08-24 05:00:00 20.1 5 Noroeste 6 Noroeste 0 1014.1 -0.4 88
2019-08-24 04:00:00 20.8 4 Norte 5 Noroeste 0 1014.2 0 85
2019-08-24 03:00:00 21 4 Norte 5 Nordeste 0 1014.2 0 85
2019-08-24 02:00:00 21.8 0 Calma 4 Sudeste 0 1014.5 0.3 82
2019-08-24 01:00:00 22.4 2 Sur 8 Sur 0 1014.2 0 80
2019-08-24 00:00:00 22.8 4 Sur 9 Sur 0 1014.2 0.6 77
2019-08-23 23:00:00 23.6 6 Sur 9 Sur 0 1014.2 0.7 73
2019-08-23 22:00:00 24.6 7 Sur 18 Sudeste 0 1014.2 0.7 69
2019-08-23 21:00:00 25.8 11 Sudeste 22 Sudeste 0 1013.6 0 61
2019-08-23 20:00:00 27.6 10 Sudeste 24 Sur 0 1013.5 -0.3 53
2019-08-23 19:00:00 29.2 13 Sudeste 30 Sudeste 0 1013.5 -0.4 53
2019-08-23 18:00:00 30.2 14 Sudeste 30 Sur 0 1013.6 -0.8 54
2019-08-23 17:00:00 31.8 14 Sudeste 34 Sudeste 0 1013.8 -0.7 52
2019-08-23 16:00:00 33 18 Sudeste 31 Sudeste 0 1013.9 -1 46
2019-08-23 15:00:00 33.3 16 Sudeste 36 Sudeste 0 1014.4 -0.9 45
2019-08-23 14:00:00 33 15 Sudeste 28 Sudeste 0 1014.5 -1.1 44
2019-08-23 13:00:00 33.7 10 Sur 21 Sur 0 1014.9 -0.6 38
2019-08-23 12:00:00 31.4 6 Sur 13 Sur 0 1015.3 -0.1 42
2019-08-23 11:00:00 29.8 4 Norte 12 Norte 0 1015.6 0.3 48
2019-08-23 10:00:00 26.6 4 Norte 14 Norte 0 1015.5 0.4 62
2019-08-23 09:00:00 23.3 5 Norte 19 Noroeste 0 1015.4 0.6 80
2019-08-23 08:00:00 20 6 Norte 9 Norte 0 1015.3 0.1 90
2019-08-23 07:00:00 19.8 3 Nordeste 9 Noroeste 0 1015.1 -0.6 90
2019-08-23 06:00:00 20.3 6 Noroeste 10 Noroeste 0 1014.8 -1.1 89
2019-08-23 05:00:00 21 8 Noroeste 10 Noroeste 0 1015.2 -0.8 86
2019-08-23 04:00:00 21.3 5 Norte 7 Norte 0 1015.7 -0.1 88
2019-08-23 03:00:00 22 2 Sudeste 8 Sudoeste 0 1015.9 0.4 86
2019-08-23 02:00:00 22.5 6 Sudoeste 15 Sudoeste 0 1016 0.7 84
2019-08-23 01:00:00 22.7 7 Oeste 10 Oeste 0 1015.8 0.9 83
2019-08-23 00:00:00 23.2 4 Sudoeste 8 Oeste 0 1015.5 1.4 77